createdAt,value
2022-10-03T00:02:06.649Z,86
2022-10-03T00:05:32.016Z,86
2022-10-03T00:08:57.453Z,86
2022-10-03T00:12:22.857Z,86
2022-10-03T00:15:48.283Z,86
2022-10-03T00:19:13.692Z,86
2022-10-03T00:22:39.066Z,86
2022-10-03T00:26:04.468Z,86
2022-10-03T00:29:29.921Z,87
2022-10-03T00:32:55.311Z,87
2022-10-03T00:36:20.841Z,87
2022-10-03T00:39:46.274Z,87
2022-10-03T00:43:11.670Z,87
2022-10-03T00:46:37.128Z,87
2022-10-03T00:50:02.465Z,87
2022-10-03T00:53:27.863Z,87
2022-10-03T00:56:53.333Z,87
2022-10-03T01:00:18.740Z,87
2022-10-03T01:03:44.234Z,87
2022-10-03T01:07:09.590Z,87
2022-10-03T01:10:34.964Z,87
2022-10-03T01:14:00.465Z,87
2022-10-03T01:17:25.926Z,87
2022-10-03T01:20:51.522Z,87
2022-10-03T01:24:16.879Z,86
2022-10-03T01:27:42.279Z,86
2022-10-03T01:31:07.757Z,86
2022-10-03T01:34:33.048Z,86
2022-10-03T01:37:58.487Z,86
2022-10-03T01:41:23.898Z,86
2022-10-03T01:44:49.306Z,86
2022-10-03T01:48:14.718Z,87
2022-10-03T01:51:40.401Z,87
2022-10-03T01:55:05.579Z,87
2022-10-03T01:58:31.094Z,86
2022-10-03T02:01:56.553Z,86
2022-10-03T02:05:21.887Z,86
2022-10-03T02:08:47.283Z,86
2022-10-03T02:12:12.688Z,87
2022-10-03T02:15:38.083Z,87
2022-10-03T02:19:03.509Z,86
2022-10-03T02:22:28.918Z,87
2022-10-03T02:25:54.319Z,87
2022-10-03T02:29:19.770Z,87
2022-10-03T02:32:45.120Z,86
2022-10-03T02:36:10.574Z,87
2022-10-03T02:39:36.068Z,87
2022-10-03T02:43:01.490Z,87
2022-10-03T02:46:26.953Z,87
2022-10-03T02:49:52.338Z,87
2022-10-03T02:53:17.746Z,87
2022-10-03T02:56:43.224Z,87
2022-10-03T03:00:08.594Z,87
2022-10-03T03:03:34.035Z,87
2022-10-03T03:06:59.413Z,87
2022-10-03T03:10:24.835Z,87
2022-10-03T03:13:50.246Z,87
2022-10-03T03:17:15.679Z,87
2022-10-03T03:20:41.190Z,87
2022-10-03T03:24:06.557Z,87
2022-10-03T03:27:31.993Z,87
2022-10-03T03:30:57.368Z,87
2022-10-03T03:34:22.836Z,87
2022-10-03T03:37:48.273Z,87
2022-10-03T03:41:13.644Z,87
2022-10-03T03:44:39.062Z,87
2022-10-03T03:48:04.489Z,87
2022-10-03T03:51:29.955Z,88
2022-10-03T03:54:55.408Z,88
2022-10-03T03:58:21.385Z,88
2022-10-03T04:01:46.825Z,88
2022-10-03T04:05:12.256Z,88
2022-10-03T04:08:37.783Z,88
2022-10-03T04:12:03.319Z,87
2022-10-03T04:15:28.755Z,88
2022-10-03T04:18:54.268Z,88
2022-10-03T04:22:19.668Z,88
2022-10-03T04:25:45.109Z,88
2022-10-03T04:29:10.602Z,88
2022-10-03T04:32:36.012Z,88
2022-10-03T04:36:01.466Z,88
2022-10-03T04:39:26.920Z,89
2022-10-03T04:42:52.372Z,89
2022-10-03T04:46:17.980Z,89
2022-10-03T04:49:43.277Z,89
2022-10-03T04:53:08.441Z,89
2022-10-03T04:56:33.631Z,89
2022-10-03T04:59:58.800Z,89
2022-10-03T05:03:24.033Z,89
2022-10-03T05:06:49.206Z,89
2022-10-03T05:10:14.411Z,89
2022-10-03T05:13:39.606Z,89
2022-10-03T05:17:04.774Z,88
2022-10-03T05:20:29.962Z,89
2022-10-03T05:23:55.122Z,88
2022-10-03T05:27:20.321Z,89
2022-10-03T05:30:45.538Z,89
2022-10-03T05:34:11.021Z,89
2022-10-03T05:37:36.136Z,88
2022-10-03T05:41:01.276Z,89
2022-10-03T05:44:26.427Z,88
2022-10-03T05:47:51.629Z,88
2022-10-03T05:51:16.803Z,89
2022-10-03T05:54:42.001Z,88
2022-10-03T05:58:07.129Z,88
2022-10-03T06:01:32.329Z,88
2022-10-03T06:04:57.507Z,88
2022-10-03T06:08:22.688Z,88
2022-10-03T06:11:47.876Z,87
2022-10-03T06:15:13.063Z,87
2022-10-03T06:18:38.228Z,87
2022-10-03T06:22:03.427Z,88
2022-10-03T06:25:28.586Z,87
2022-10-03T06:28:53.766Z,88
2022-10-03T06:32:18.917Z,87
2022-10-03T06:35:44.079Z,88
2022-10-03T06:39:09.273Z,88
2022-10-03T06:42:34.450Z,88
2022-10-03T06:45:59.714Z,87
2022-10-03T06:49:24.929Z,87
2022-10-03T06:52:50.092Z,87
2022-10-03T06:56:15.257Z,87
2022-10-03T06:59:40.427Z,87
2022-10-03T07:03:05.629Z,87
2022-10-03T07:06:30.777Z,86
2022-10-03T07:09:55.941Z,87
2022-10-03T07:13:21.096Z,87
2022-10-03T07:16:46.287Z,87
2022-10-03T07:20:11.467Z,87
2022-10-03T07:23:36.622Z,87
2022-10-03T07:27:01.784Z,86
2022-10-03T07:30:26.963Z,86
2022-10-03T07:33:52.133Z,86
2022-10-03T07:37:17.320Z,86
2022-10-03T07:40:42.481Z,87
2022-10-03T07:44:07.628Z,86
2022-10-03T07:47:32.815Z,85
2022-10-03T07:50:58.005Z,85
2022-10-03T07:54:23.189Z,86
2022-10-03T07:57:48.323Z,86
2022-10-03T08:01:13.485Z,86
2022-10-03T08:04:38.674Z,86
2022-10-03T08:08:03.846Z,86
2022-10-03T08:11:29.030Z,85
2022-10-03T08:14:54.190Z,84
2022-10-03T08:18:19.368Z,85
2022-10-03T08:21:44.539Z,85
2022-10-03T08:25:09.739Z,84
2022-10-03T08:28:35.022Z,84
2022-10-03T08:32:00.164Z,83
2022-10-03T08:35:25.301Z,84
2022-10-03T08:38:50.495Z,84
2022-10-03T08:42:15.656Z,83
2022-10-03T08:45:40.856Z,84
2022-10-03T08:49:06.020Z,83
2022-10-03T08:52:31.175Z,82
2022-10-03T08:55:56.354Z,82
2022-10-03T08:59:21.538Z,83
2022-10-03T09:02:46.777Z,82
2022-10-03T09:06:11.872Z,81
2022-10-03T09:09:37.063Z,81
2022-10-03T09:13:02.209Z,78
2022-10-03T09:16:27.424Z,80
2022-10-03T09:19:52.605Z,80
2022-10-03T09:23:17.741Z,80
2022-10-03T09:26:43.197Z,81
2022-10-03T09:30:08.087Z,79
2022-10-03T09:33:33.259Z,78
2022-10-03T09:36:58.528Z,78
2022-10-03T09:40:23.602Z,77
2022-10-03T09:43:48.769Z,78
2022-10-03T09:47:13.931Z,77
2022-10-03T09:50:39.112Z,79
2022-10-03T09:54:04.312Z,77
2022-10-03T09:57:29.443Z,79
2022-10-03T10:00:54.669Z,74
2022-10-03T10:04:32.598Z,74
2022-10-03T10:07:44.958Z,76
2022-10-03T10:11:10.143Z,76
2022-10-03T10:14:35.293Z,76
2022-10-03T10:18:00.457Z,76
2022-10-03T10:21:25.639Z,76
2022-10-03T10:24:50.809Z,74
2022-10-03T10:28:16.051Z,76
2022-10-03T10:31:41.223Z,76
2022-10-03T10:35:06.299Z,75
2022-10-03T10:38:31.485Z,75
2022-10-03T10:41:56.653Z,73
2022-10-03T10:45:21.834Z,74
2022-10-03T10:48:46.987Z,74
2022-10-03T10:52:12.178Z,74
2022-10-03T10:55:37.354Z,73
2022-10-03T10:59:02.538Z,73
2022-10-03T11:02:27.730Z,73
2022-10-03T11:05:57.507Z,72
2022-10-03T11:09:22.703Z,73
2022-10-03T11:12:48.252Z,75
2022-10-03T11:16:13.465Z,75
2022-10-03T11:19:38.633Z,74
2022-10-03T11:23:04.796Z,73
2022-10-03T11:26:28.965Z,73
2022-10-03T11:29:54.121Z,71
2022-10-03T11:33:19.297Z,73
2022-10-03T11:36:44.712Z,73
2022-10-03T11:40:09.673Z,72
2022-10-03T11:43:34.851Z,74
2022-10-03T11:47:00.027Z,74
2022-10-03T11:50:25.234Z,73
2022-10-03T11:53:50.441Z,74
2022-10-03T11:57:15.596Z,73
2022-10-03T12:00:40.785Z,75
2022-10-03T12:04:05.970Z,71
2022-10-03T12:07:31.189Z,75
2022-10-03T12:10:56.404Z,72
2022-10-03T12:14:21.564Z,72
2022-10-03T12:17:46.754Z,72
2022-10-03T12:21:12.000Z,72
2022-10-03T12:24:37.181Z,72
2022-10-03T12:28:02.552Z,71
2022-10-03T12:31:27.640Z,72
2022-10-03T12:34:52.812Z,72
2022-10-03T12:38:18.003Z,73
2022-10-03T12:41:43.292Z,71
2022-10-03T12:45:08.395Z,73
2022-10-03T12:48:33.559Z,73
2022-10-03T12:51:58.757Z,71
2022-10-03T12:55:23.963Z,71
2022-10-03T12:58:49.107Z,72
2022-10-03T13:02:14.378Z,71
2022-10-03T13:05:39.565Z,70
2022-10-03T13:09:04.763Z,70
2022-10-03T13:12:29.977Z,72
2022-10-03T13:15:55.213Z,70
2022-10-03T13:19:20.616Z,72
2022-10-03T13:22:45.798Z,72
2022-10-03T13:26:13.751Z,73
2022-10-03T13:29:36.172Z,72
2022-10-03T13:33:01.344Z,73
2022-10-03T13:36:26.559Z,73
2022-10-03T13:39:51.718Z,72
2022-10-03T13:43:16.889Z,72
2022-10-03T13:46:42.071Z,70
2022-10-03T13:50:07.333Z,72
2022-10-03T13:53:32.494Z,71
2022-10-03T13:56:57.637Z,72
2022-10-03T14:00:22.821Z,72
2022-10-03T14:03:47.960Z,72
2022-10-03T14:07:13.150Z,71
2022-10-03T14:10:38.396Z,71
2022-10-03T14:14:03.543Z,71
2022-10-03T14:17:28.721Z,72
2022-10-03T14:20:53.919Z,72
2022-10-03T14:24:19.094Z,73
2022-10-03T14:27:44.331Z,72
2022-10-03T15:04:04.060Z,71
2022-10-03T15:07:32.515Z,72
2022-10-03T15:10:54.388Z,72
2022-10-03T15:14:19.553Z,71
2022-10-03T15:17:44.733Z,71
2022-10-03T15:21:09.922Z,73
2022-10-03T15:24:35.080Z,72
2022-10-03T15:28:00.324Z,71
2022-10-03T15:31:25.447Z,73
2022-10-03T15:34:50.638Z,72
2022-10-03T15:38:15.897Z,73
2022-10-03T15:41:41.281Z,72
2022-10-03T15:45:06.293Z,72
2022-10-03T15:48:31.500Z,73
2022-10-03T15:51:56.715Z,72
2022-10-03T15:55:21.947Z,71
2022-10-03T15:58:47.142Z,72
2022-10-03T16:02:12.465Z,73
2022-10-03T16:05:37.546Z,74
2022-10-03T16:09:02.717Z,74
2022-10-03T16:12:28.008Z,72
2022-10-03T16:15:53.100Z,72
2022-10-03T16:19:18.299Z,73
2022-10-03T16:22:43.680Z,73
2022-10-03T16:26:10.127Z,72
2022-10-03T16:29:35.286Z,72
2022-10-03T16:33:00.483Z,73
2022-10-03T16:36:25.738Z,73
2022-10-03T16:39:51.931Z,73
2022-10-03T16:43:16.075Z,73
2022-10-03T16:46:41.314Z,74
2022-10-03T16:50:06.470Z,75
2022-10-03T16:53:31.682Z,75
2022-10-03T16:56:56.863Z,76
2022-10-03T17:00:22.022Z,77
2022-10-03T17:03:47.221Z,77
2022-10-03T17:07:12.430Z,77
2022-10-03T17:10:37.603Z,78
2022-10-03T17:14:02.778Z,78
2022-10-03T17:17:27.947Z,79
2022-10-03T17:20:53.139Z,79
2022-10-03T17:24:18.290Z,79
2022-10-03T17:27:43.469Z,80
2022-10-03T17:31:08.689Z,80
2022-10-03T17:34:33.826Z,80
2022-10-03T17:38:01.823Z,80
2022-10-03T17:41:24.175Z,80
2022-10-03T17:44:49.325Z,80
2022-10-03T17:48:14.497Z,81
2022-10-03T17:51:40.014Z,81
2022-10-03T17:55:04.942Z,81
2022-10-03T17:58:30.143Z,81
2022-10-03T18:01:55.365Z,82
2022-10-03T18:05:20.497Z,81
2022-10-03T18:08:45.697Z,82
2022-10-03T18:12:10.899Z,82
2022-10-03T18:15:36.078Z,82
2022-10-03T18:19:01.245Z,83
2022-10-03T18:22:26.482Z,83
2022-10-03T18:26:15.364Z,83
2022-10-03T18:29:16.876Z,83
2022-10-03T18:32:41.997Z,83
2022-10-03T18:36:07.178Z,83
2022-10-03T18:39:32.349Z,83
2022-10-03T18:42:57.562Z,83
2022-10-03T18:46:22.851Z,83
2022-10-03T18:49:47.978Z,83
2022-10-03T18:53:13.200Z,83
2022-10-03T18:56:38.408Z,83
2022-10-03T19:00:03.582Z,82
2022-10-03T19:03:28.823Z,82
2022-10-03T19:06:54.060Z,83
2022-10-03T19:10:19.497Z,82
2022-10-03T19:13:45.458Z,83
2022-10-03T19:17:10.000Z,82
2022-10-03T19:20:35.286Z,82
2022-10-03T19:24:00.536Z,83
2022-10-03T19:27:25.834Z,83
2022-10-03T19:30:51.099Z,83
2022-10-03T19:34:16.362Z,83
2022-10-03T19:37:45.234Z,83
2022-10-03T19:41:06.909Z,83
2022-10-03T19:44:32.073Z,82
2022-10-03T19:47:57.305Z,83
2022-10-03T19:51:25.337Z,83
2022-10-03T19:54:47.998Z,83
2022-10-03T19:58:13.073Z,82
2022-10-03T20:01:38.632Z,82
2022-10-03T20:05:03.554Z,83
2022-10-03T20:08:28.785Z,83
2022-10-03T20:11:53.988Z,84
2022-10-03T20:15:19.135Z,84
2022-10-03T20:18:44.348Z,84
2022-10-03T20:22:09.495Z,84
2022-10-03T20:25:34.667Z,83
2022-10-03T20:28:59.852Z,83
2022-10-03T20:32:25.055Z,83
2022-10-03T20:35:51.116Z,83
2022-10-03T20:39:16.294Z,83
2022-10-03T20:42:41.476Z,82
2022-10-03T20:46:06.722Z,83
2022-10-03T20:49:31.820Z,83
2022-10-03T20:52:56.982Z,83
2022-10-03T20:56:22.164Z,83
2022-10-03T20:59:47.330Z,83
2022-10-03T21:03:12.537Z,83
2022-10-03T21:06:37.698Z,83
2022-10-03T21:10:02.853Z,84
2022-10-03T21:13:28.035Z,83
2022-10-03T21:16:53.196Z,83
2022-10-03T21:20:18.387Z,84
2022-10-03T21:23:43.578Z,83
2022-10-03T21:27:08.754Z,83
2022-10-03T21:30:33.935Z,83
2022-10-03T21:33:59.107Z,83
2022-10-03T21:37:24.299Z,83
2022-10-03T21:40:49.438Z,83
2022-10-03T21:44:14.599Z,82
2022-10-03T21:47:39.774Z,82
2022-10-03T21:51:04.950Z,83
2022-10-03T21:54:30.158Z,82
2022-10-03T21:57:55.296Z,83
2022-10-03T22:01:20.497Z,83
2022-10-03T22:04:45.644Z,83
2022-10-03T22:08:10.843Z,83
2022-10-03T22:11:36.030Z,83
2022-10-03T22:15:01.196Z,84
2022-10-03T22:18:26.358Z,83
2022-10-03T22:21:51.513Z,84
2022-10-03T22:25:16.705Z,83
2022-10-03T22:28:41.879Z,83
2022-10-03T22:32:07.040Z,84
2022-10-03T22:35:32.237Z,83
2022-10-03T22:38:57.396Z,83
2022-10-03T22:42:22.569Z,83
2022-10-03T22:45:47.789Z,84
2022-10-03T22:49:12.941Z,83
2022-10-03T22:52:38.096Z,83
2022-10-03T22:56:03.289Z,83
2022-10-03T22:59:28.474Z,84
2022-10-03T23:02:53.683Z,83
2022-10-03T23:06:18.811Z,83
2022-10-03T23:09:43.981Z,83
2022-10-03T23:13:09.176Z,83
2022-10-03T23:16:34.332Z,83
2022-10-03T23:19:59.527Z,83
2022-10-03T23:23:24.673Z,83
2022-10-03T23:26:49.835Z,83
2022-10-03T23:30:15.012Z,83
2022-10-03T23:33:40.188Z,83
2022-10-03T23:37:05.371Z,83
2022-10-03T23:40:30.519Z,83
2022-10-03T23:43:55.693Z,83
2022-10-03T23:47:20.847Z,83
2022-10-03T23:50:46.027Z,84
2022-10-03T23:54:11.206Z,83
2022-10-03T23:57:36.357Z,83
